createdAt,value
2018-09-11T00:00:02.382Z,17.90
2018-09-11T00:01:06.849Z,17.90
2018-09-11T00:02:11.065Z,17.90
2018-09-11T00:03:15.266Z,17.80
2018-09-11T00:04:19.567Z,17.80
2018-09-11T00:05:23.770Z,17.80
2018-09-11T00:06:28.135Z,17.80
2018-09-11T00:07:32.469Z,17.90
2018-09-11T00:08:36.573Z,17.90
2018-09-11T00:09:40.794Z,17.90
2018-09-11T00:10:44.964Z,17.90
2018-09-11T00:11:49.454Z,17.80
2018-09-11T00:12:53.745Z,17.80
2018-09-11T00:13:58.135Z,17.80
2018-09-11T00:15:02.598Z,17.80
2018-09-11T00:16:06.866Z,17.80
2018-09-11T00:17:10.988Z,17.90
2018-09-11T00:18:15.165Z,17.90
2018-09-11T00:19:19.292Z,17.80
2018-09-11T00:20:23.444Z,17.80
2018-09-11T00:21:27.580Z,17.90
2018-09-11T00:22:31.783Z,17.90
2018-09-11T00:23:35.973Z,17.90
2018-09-11T00:24:40.227Z,17.80
2018-09-11T00:25:44.492Z,17.90
2018-09-11T00:26:48.780Z,17.90
2018-09-11T00:27:52.961Z,17.90
2018-09-11T00:28:57.192Z,17.90
2018-09-11T00:30:01.562Z,17.90
2018-09-11T00:31:05.733Z,17.90
2018-09-11T00:32:09.962Z,17.90
2018-09-11T00:33:14.283Z,17.90
2018-09-11T00:34:18.342Z,17.90
2018-09-11T00:35:22.606Z,17.90
2018-09-11T00:36:26.959Z,18.00
2018-09-11T00:37:31.311Z,17.90
2018-09-11T00:38:35.497Z,17.90
2018-09-11T00:39:39.891Z,17.80
2018-09-11T00:40:44.302Z,17.80
2018-09-11T00:41:51.821Z,17.80
2018-09-11T00:42:56.390Z,17.80
2018-09-11T00:44:00.758Z,17.80
2018-09-11T00:45:05.114Z,17.80
2018-09-11T00:46:09.469Z,17.80
2018-09-11T00:47:13.745Z,17.80
2018-09-11T00:48:18.073Z,17.80
2018-09-11T00:49:22.370Z,17.80
2018-09-11T00:50:26.438Z,17.90
2018-09-11T00:51:31.337Z,17.80
2018-09-11T00:52:35.580Z,17.90
2018-09-11T00:53:39.833Z,17.90
2018-09-11T00:54:44.042Z,17.80
2018-09-11T00:55:49.027Z,17.80
2018-09-11T00:56:53.469Z,17.80
2018-09-11T00:57:57.683Z,17.80
2018-09-11T00:59:01.925Z,17.70
2018-09-11T01:00:07.052Z,17.80
2018-09-11T01:01:11.096Z,17.80
2018-09-11T01:02:15.284Z,17.80
2018-09-11T01:03:19.628Z,17.90
2018-09-11T01:04:23.973Z,17.80
2018-09-11T01:05:28.293Z,17.80
2018-09-11T01:06:32.750Z,17.80
2018-09-11T01:07:37.042Z,17.80
2018-09-11T01:08:41.192Z,17.80
2018-09-11T01:09:45.564Z,17.80
2018-09-11T01:10:49.765Z,17.80
2018-09-11T01:11:54.251Z,17.80
2018-09-11T01:12:58.581Z,17.80
2018-09-11T01:14:02.954Z,17.80
2018-09-11T01:15:08.425Z,17.80
2018-09-11T01:16:12.717Z,17.80
2018-09-11T01:17:17.292Z,17.80
2018-09-11T01:18:21.392Z,17.70
2018-09-11T01:19:25.493Z,17.80
2018-09-11T01:20:29.774Z,17.80
2018-09-11T01:21:34.289Z,17.80
2018-09-11T01:22:38.815Z,17.80
2018-09-11T01:23:42.951Z,17.80
2018-09-11T01:24:47.093Z,17.80
2018-09-11T01:25:51.546Z,17.70
2018-09-11T01:26:55.691Z,17.80
2018-09-11T01:27:59.887Z,17.70
2018-09-11T01:29:04.126Z,17.70
2018-09-11T01:30:08.442Z,17.70
2018-09-11T01:31:12.718Z,17.70
2018-09-11T01:32:17.185Z,17.70
2018-09-11T01:33:21.349Z,17.80
2018-09-11T01:34:25.676Z,17.70
2018-09-11T01:35:29.878Z,17.70
2018-09-11T01:36:34.186Z,17.70
2018-09-11T01:37:38.506Z,17.70
2018-09-11T01:38:42.761Z,17.70
2018-09-11T01:39:47.094Z,17.70
2018-09-11T01:40:51.364Z,17.60
2018-09-11T01:41:55.613Z,17.60
2018-09-11T01:42:59.703Z,17.70
2018-09-11T01:44:04.010Z,17.70
2018-09-11T01:45:08.317Z,17.70
2018-09-11T01:46:12.927Z,17.70
2018-09-11T01:47:17.405Z,17.70
2018-09-11T01:48:21.956Z,17.70
2018-09-11T01:49:26.524Z,17.70
2018-09-11T01:50:30.744Z,17.70
2018-09-11T01:51:35.194Z,17.70
2018-09-11T01:52:39.443Z,17.70
2018-09-11T01:53:43.734Z,17.70
2018-09-11T01:54:48.360Z,17.70
2018-09-11T01:55:52.552Z,17.70
2018-09-11T01:56:56.893Z,17.60
2018-09-11T01:58:01.513Z,17.60
2018-09-11T01:59:06.227Z,17.60
2018-09-11T02:00:16.355Z,17.60
2018-09-11T02:01:20.694Z,17.50
2018-09-11T02:02:24.982Z,17.60
2018-09-11T02:03:29.436Z,17.60
2018-09-11T02:04:33.858Z,17.60
2018-09-11T02:05:38.022Z,17.60
2018-09-11T02:06:42.340Z,17.60
2018-09-11T02:07:46.692Z,17.60
2018-09-11T02:08:50.836Z,17.60
2018-09-11T02:09:55.194Z,17.60
2018-09-11T02:10:59.582Z,17.60
2018-09-11T02:12:04.105Z,17.50
2018-09-11T02:13:08.612Z,17.60
2018-09-11T02:14:13.002Z,17.50
2018-09-11T02:15:17.266Z,17.50
2018-09-11T02:16:21.712Z,17.50
2018-09-11T02:17:26.200Z,17.50
2018-09-11T02:18:30.333Z,17.60
2018-09-11T02:19:34.480Z,17.60
2018-09-11T02:20:38.626Z,17.60
2018-09-11T02:21:42.933Z,17.60
2018-09-11T02:22:47.181Z,17.60
2018-09-11T02:23:51.492Z,17.50
2018-09-11T02:24:55.938Z,17.50
2018-09-11T02:26:00.500Z,17.50
2018-09-11T02:27:05.027Z,17.50
2018-09-11T02:28:09.374Z,17.40
2018-09-11T02:29:13.853Z,17.40
2018-09-11T02:30:18.071Z,17.40
2018-09-11T02:31:22.362Z,17.40
2018-09-11T02:32:27.235Z,17.30
2018-09-11T02:33:31.425Z,17.30
2018-09-11T02:34:35.642Z,17.30
2018-09-11T02:35:39.975Z,17.30
2018-09-11T02:36:44.035Z,17.30
2018-09-11T02:37:48.282Z,17.30
2018-09-11T02:38:52.619Z,17.30
2018-09-11T02:39:56.903Z,17.30
2018-09-11T02:41:01.100Z,17.30
2018-09-11T02:42:05.545Z,17.30
2018-09-11T02:43:10.065Z,17.40
2018-09-11T02:44:14.408Z,17.30
2018-09-11T02:45:21.192Z,17.30
2018-09-11T02:46:25.618Z,17.30
2018-09-11T02:47:29.993Z,17.30
2018-09-11T02:48:34.381Z,17.30
2018-09-11T02:49:39.175Z,17.30
2018-09-11T02:50:43.451Z,17.20
2018-09-11T02:51:47.832Z,17.20
2018-09-11T02:52:52.075Z,17.20
2018-09-11T02:53:56.310Z,17.10
2018-09-11T02:55:00.490Z,17.10
2018-09-11T02:56:05.083Z,17.10
2018-09-11T02:57:09.221Z,17.10
2018-09-11T02:58:13.311Z,17.10
2018-09-11T02:59:17.525Z,17.10
2018-09-11T03:00:21.614Z,17.10
2018-09-11T03:01:26.244Z,17.00
2018-09-11T03:02:30.390Z,17.00
2018-09-11T03:03:34.719Z,17.00
2018-09-11T03:04:39.017Z,17.00
2018-09-11T03:05:43.407Z,17.00
2018-09-11T03:06:47.572Z,16.90
2018-09-11T03:07:51.842Z,16.90
2018-09-11T03:08:56.103Z,16.90
2018-09-11T03:10:00.260Z,16.90
2018-09-11T03:11:04.668Z,16.80
2018-09-11T03:12:08.866Z,16.90
2018-09-11T03:13:13.002Z,16.80
2018-09-11T03:14:17.086Z,16.80
2018-09-11T03:15:21.585Z,16.70
2018-09-11T03:16:25.758Z,16.70
2018-09-11T03:17:29.900Z,16.70
2018-09-11T03:18:34.079Z,16.70
2018-09-11T03:19:38.357Z,16.70
2018-09-11T03:20:42.789Z,16.70
2018-09-11T03:21:46.827Z,16.70
2018-09-11T03:22:51.406Z,16.70
2018-09-11T03:23:55.604Z,16.60
2018-09-11T03:24:59.974Z,16.60
2018-09-11T03:26:04.499Z,16.60
2018-09-11T03:27:08.868Z,16.60
2018-09-11T03:28:12.936Z,16.60
2018-09-11T03:29:17.340Z,16.60
2018-09-11T03:30:21.626Z,16.60
2018-09-11T03:31:25.833Z,16.60
2018-09-11T03:32:30.231Z,16.60
2018-09-11T03:33:34.665Z,16.60
2018-09-11T03:34:38.817Z,16.60
2018-09-11T03:35:42.978Z,16.60
2018-09-11T03:36:47.369Z,16.60
2018-09-11T03:37:51.765Z,16.60
2018-09-11T03:38:56.097Z,16.60
2018-09-11T03:40:00.561Z,16.60
2018-09-11T03:41:04.871Z,16.60
2018-09-11T03:42:09.330Z,16.60
2018-09-11T03:43:14.166Z,16.50
2018-09-11T03:44:18.733Z,16.50
2018-09-11T03:45:23.154Z,16.50
2018-09-11T03:46:27.450Z,16.50
2018-09-11T03:47:31.586Z,16.50
2018-09-11T03:48:35.918Z,16.50
2018-09-11T03:49:40.221Z,16.50
2018-09-11T03:50:44.895Z,16.50
2018-09-11T03:51:49.044Z,16.50
2018-09-11T03:52:53.156Z,16.50
2018-09-11T03:53:57.387Z,16.60
2018-09-11T03:55:01.629Z,16.60
2018-09-11T03:56:05.971Z,16.50
2018-09-11T03:57:10.216Z,16.50
2018-09-11T03:58:14.843Z,16.50
2018-09-11T03:59:19.455Z,16.40
2018-09-11T04:00:23.570Z,16.40
2018-09-11T04:01:27.797Z,16.50
2018-09-11T04:02:32.045Z,16.50
2018-09-11T04:03:36.250Z,16.50
2018-09-11T04:04:40.510Z,16.40
2018-09-11T04:05:44.780Z,16.50
2018-09-11T04:06:49.047Z,16.50
2018-09-11T04:07:53.526Z,16.50
2018-09-11T04:08:58.080Z,16.60
2018-09-11T04:10:02.306Z,16.50
2018-09-11T04:11:06.817Z,16.50
2018-09-11T04:12:11.339Z,16.60
2018-09-11T04:13:15.986Z,16.60
2018-09-11T04:14:20.288Z,16.50
2018-09-11T04:15:24.609Z,16.50
2018-09-11T04:16:29.030Z,16.50
2018-09-11T04:17:40.127Z,16.50
2018-09-11T04:18:44.455Z,16.50
2018-09-11T04:19:48.723Z,16.50
2018-09-11T04:20:53.112Z,16.50
2018-09-11T04:21:57.686Z,16.50
2018-09-11T04:23:01.826Z,16.40
2018-09-11T04:24:06.119Z,16.50
2018-09-11T04:25:10.531Z,16.50
2018-09-11T04:26:14.823Z,16.40
2018-09-11T04:27:18.993Z,16.40
2018-09-11T04:28:23.262Z,16.50
2018-09-11T04:29:27.524Z,16.50
2018-09-11T04:30:31.678Z,16.50
2018-09-11T04:31:35.886Z,16.50
2018-09-11T04:32:40.294Z,16.50
2018-09-11T04:33:44.472Z,16.40
2018-09-11T04:34:48.743Z,16.40
2018-09-11T04:35:53.281Z,16.40
2018-09-11T04:36:57.412Z,16.40
2018-09-11T04:38:01.887Z,16.40
2018-09-11T04:39:08.045Z,16.40
2018-09-11T04:40:12.363Z,16.40
2018-09-11T04:41:16.506Z,16.40
2018-09-11T04:42:20.966Z,16.40
2018-09-11T04:43:25.275Z,16.30
2018-09-11T04:44:29.734Z,16.30
2018-09-11T04:45:33.837Z,16.30
2018-09-11T04:46:38.116Z,16.30
2018-09-11T04:47:42.609Z,16.30
2018-09-11T04:48:46.981Z,16.30
2018-09-11T04:49:51.353Z,16.30
2018-09-11T04:50:55.533Z,16.30
2018-09-11T04:51:59.644Z,16.30
2018-09-11T04:53:03.966Z,16.30
2018-09-11T04:54:08.043Z,16.30
2018-09-11T04:55:12.191Z,16.30
2018-09-11T04:56:16.307Z,16.30
2018-09-11T04:57:20.504Z,16.30
2018-09-11T04:59:54.311Z,16.40
2018-09-11T05:00:58.755Z,16.30
2018-09-11T05:02:03.233Z,16.30
2018-09-11T05:03:07.720Z,16.30
2018-09-11T05:04:12.048Z,16.30
2018-09-11T05:05:16.518Z,16.30
2018-09-11T05:06:20.688Z,16.40
2018-09-11T05:07:25.156Z,16.40
2018-09-11T05:08:29.656Z,16.40
2018-09-11T05:09:34.164Z,16.30
2018-09-11T05:10:38.625Z,16.30
2018-09-11T05:11:42.741Z,16.30
2018-09-11T05:12:47.196Z,16.30
2018-09-11T05:13:51.406Z,16.40
2018-09-11T05:14:55.654Z,16.30
2018-09-11T05:16:00.066Z,16.30
2018-09-11T05:17:04.322Z,16.30
2018-09-11T05:18:08.733Z,16.40
2018-09-11T05:19:12.948Z,16.30
2018-09-11T05:20:17.357Z,16.30
2018-09-11T05:21:21.660Z,16.30
2018-09-11T05:22:25.765Z,16.30
2018-09-11T05:23:30.115Z,16.30
2018-09-11T05:24:34.701Z,16.30
2018-09-11T05:25:39.020Z,16.30
2018-09-11T05:26:43.428Z,16.30
2018-09-11T05:27:47.856Z,16.30
2018-09-11T05:28:52.096Z,16.40
2018-09-11T05:29:56.514Z,16.40
2018-09-11T05:31:00.780Z,16.30
2018-09-11T05:32:04.944Z,16.40
2018-09-11T05:33:09.059Z,16.40
2018-09-11T05:34:13.161Z,16.30
2018-09-11T05:35:17.368Z,16.40
2018-09-11T05:36:22.077Z,16.40
2018-09-11T05:37:26.403Z,16.40
2018-09-11T05:38:30.612Z,16.40
2018-09-11T05:39:34.855Z,16.40
2018-09-11T05:40:38.998Z,16.40
2018-09-11T05:41:43.343Z,16.50
2018-09-11T05:42:47.758Z,16.50
2018-09-11T05:43:52.060Z,16.50
2018-09-11T05:44:56.616Z,16.60
2018-09-11T05:46:00.937Z,16.60
2018-09-11T05:47:05.524Z,16.60
2018-09-11T05:48:09.763Z,16.50
2018-09-11T05:49:14.040Z,16.50
2018-09-11T05:50:18.303Z,16.50
2018-09-11T05:51:22.631Z,16.50
2018-09-11T05:52:26.939Z,16.50
2018-09-11T05:53:31.196Z,16.60
2018-09-11T05:54:35.404Z,16.60
2018-09-11T05:55:39.622Z,16.60
2018-09-11T05:56:44.124Z,16.70
2018-09-11T05:57:48.372Z,16.60
2018-09-11T05:58:52.784Z,16.70
2018-09-11T05:59:57.096Z,16.70
2018-09-11T06:01:01.245Z,16.70
2018-09-11T06:02:05.505Z,16.70
2018-09-11T06:03:09.881Z,16.80
2018-09-11T06:04:14.057Z,16.80
2018-09-11T06:05:18.895Z,16.80
2018-09-11T06:06:23.360Z,16.80
2018-09-11T06:07:27.649Z,16.90
2018-09-11T06:08:31.887Z,16.90
2018-09-11T06:09:36.073Z,16.90
2018-09-11T06:10:40.406Z,16.90
2018-09-11T06:11:44.742Z,17.00
2018-09-11T06:12:49.209Z,17.00
2018-09-11T06:13:53.503Z,17.00
2018-09-11T06:14:57.822Z,17.10
2018-09-11T06:16:02.251Z,17.10
2018-09-11T06:17:06.638Z,17.10
2018-09-11T06:18:10.839Z,17.10
2018-09-11T06:19:21.604Z,17.10
2018-09-11T06:20:25.861Z,17.10
2018-09-11T06:21:29.938Z,17.20
2018-09-11T06:22:34.378Z,17.20
2018-09-11T06:23:38.644Z,17.20
2018-09-11T06:24:42.959Z,17.30
2018-09-11T06:25:47.304Z,17.30
2018-09-11T06:26:51.553Z,17.30
2018-09-11T06:27:55.853Z,17.30
2018-09-11T06:28:59.961Z,17.40
2018-09-11T06:30:04.622Z,17.50
2018-09-11T06:31:08.965Z,17.50
2018-09-11T06:32:13.711Z,17.50
2018-09-11T06:33:18.111Z,17.50
2018-09-11T06:34:22.365Z,17.50
2018-09-11T06:35:26.489Z,17.50
2018-09-11T06:36:30.914Z,17.60
2018-09-11T06:37:35.142Z,17.70
2018-09-11T06:38:39.230Z,17.70
2018-09-11T06:39:43.613Z,17.70
2018-09-11T06:40:47.980Z,17.70
2018-09-11T06:41:52.121Z,17.70
2018-09-11T06:42:56.906Z,17.70
2018-09-11T06:44:01.322Z,17.80
2018-09-11T06:45:05.660Z,17.80
2018-09-11T06:46:10.117Z,17.80
2018-09-11T06:47:14.763Z,17.80
2018-09-11T06:48:19.036Z,17.90
2018-09-11T06:49:23.396Z,17.90
2018-09-11T06:50:27.593Z,17.90
2018-09-11T06:51:32.451Z,17.90
2018-09-11T06:52:37.997Z,18.00
2018-09-11T06:53:42.265Z,17.90
2018-09-11T06:54:46.543Z,17.90
2018-09-11T06:55:50.849Z,17.90
2018-09-11T06:56:55.157Z,18.00
2018-09-11T06:57:59.545Z,18.00
2018-09-11T06:59:03.769Z,18.20
2018-09-11T07:00:08.305Z,18.20
2018-09-11T07:01:12.790Z,18.20
2018-09-11T07:02:17.029Z,18.30
2018-09-11T07:03:21.287Z,18.30
2018-09-11T07:04:25.560Z,18.30
2018-09-11T07:05:29.744Z,18.40
2018-09-11T07:06:34.078Z,18.50
2018-09-11T07:07:38.413Z,18.50
2018-09-11T07:08:42.586Z,18.50
2018-09-11T07:09:46.844Z,18.50
2018-09-11T07:10:51.100Z,18.60
2018-09-11T07:11:55.561Z,18.70
2018-09-11T07:12:59.881Z,18.60
2018-09-11T07:14:04.557Z,18.70
2018-09-11T07:15:08.811Z,18.70
2018-09-11T07:16:13.116Z,18.80
2018-09-11T07:17:17.226Z,18.80
2018-09-11T07:18:21.417Z,18.80
2018-09-11T07:19:25.825Z,18.80
2018-09-11T07:20:30.427Z,18.90
2018-09-11T07:21:34.638Z,18.90
2018-09-11T07:22:38.700Z,18.90
2018-09-11T07:23:45.766Z,19.00
2018-09-11T07:24:49.919Z,19.00
2018-09-11T07:25:54.023Z,19.00
2018-09-11T07:26:58.341Z,19.00
2018-09-11T07:28:02.633Z,19.00
2018-09-11T07:29:06.840Z,19.10
2018-09-11T07:30:10.998Z,19.10
2018-09-11T07:31:15.342Z,19.20
2018-09-11T07:32:19.801Z,19.20
2018-09-11T07:33:23.848Z,19.20
2018-09-11T07:34:28.040Z,19.30
2018-09-11T07:35:32.128Z,19.40
2018-09-11T07:36:36.454Z,19.30
2018-09-11T07:37:40.890Z,19.30
2018-09-11T07:38:45.283Z,19.30
2018-09-11T07:39:49.556Z,19.40
2018-09-11T07:40:53.840Z,19.40
2018-09-11T07:41:58.132Z,19.50
2018-09-11T07:43:02.341Z,19.50
2018-09-11T07:44:06.493Z,19.50
2018-09-11T07:45:10.750Z,19.60
2018-09-11T07:46:15.220Z,19.50
2018-09-11T07:47:19.318Z,19.60
2018-09-11T07:48:23.543Z,19.60
2018-09-11T07:49:27.693Z,19.60
2018-09-11T07:50:31.891Z,19.70
2018-09-11T07:51:36.146Z,19.70
2018-09-11T07:52:40.389Z,19.70
2018-09-11T07:53:44.567Z,19.70
2018-09-11T07:54:48.851Z,19.70
2018-09-11T07:55:53.102Z,19.80
2018-09-11T07:56:57.126Z,19.80
2018-09-11T07:58:01.241Z,19.80
2018-09-11T07:59:05.322Z,19.80
2018-09-11T08:00:09.717Z,19.90
2018-09-11T08:01:14.023Z,19.90
2018-09-11T08:02:18.198Z,19.90
2018-09-11T08:03:22.710Z,20.00
2018-09-11T08:04:26.852Z,20.00
2018-09-11T08:05:31.060Z,20.10
2018-09-11T08:06:35.315Z,20.10
2018-09-11T08:07:39.619Z,20.00
2018-09-11T08:08:43.958Z,20.00
2018-09-11T08:09:48.386Z,20.00
2018-09-11T08:10:52.581Z,20.00
2018-09-11T08:11:56.994Z,20.10
2018-09-11T08:13:01.259Z,20.20
2018-09-11T08:14:06.134Z,20.20
2018-09-11T08:15:10.246Z,20.30
2018-09-11T08:16:14.848Z,20.30
2018-09-11T08:17:19.149Z,20.20
2018-09-11T08:18:23.465Z,20.20
2018-09-11T08:19:27.741Z,20.10
2018-09-11T08:20:32.119Z,20.30
2018-09-11T08:21:36.622Z,20.20
2018-09-11T08:22:40.822Z,20.20
2018-09-11T08:23:45.046Z,20.20
2018-09-11T08:24:49.509Z,20.30
2018-09-11T08:25:53.682Z,20.30
2018-09-11T08:26:57.907Z,20.40
2018-09-11T08:28:02.233Z,20.40
2018-09-11T08:29:06.635Z,20.40
2018-09-11T08:30:11.043Z,20.40
2018-09-11T08:31:15.364Z,20.50
2018-09-11T08:32:19.796Z,20.60
2018-09-11T08:33:24.084Z,20.60
2018-09-11T08:34:28.311Z,20.60
2018-09-11T08:35:32.624Z,20.60
2018-09-11T08:36:36.939Z,20.60
2018-09-11T08:37:41.168Z,20.60
2018-09-11T08:38:45.298Z,20.60
2018-09-11T08:39:49.409Z,20.60
2018-09-11T08:40:53.609Z,20.60
2018-09-11T08:41:57.761Z,20.60
2018-09-11T08:43:01.960Z,20.70
2018-09-11T08:44:06.300Z,20.70
2018-09-11T08:45:10.608Z,20.70
2018-09-11T08:46:15.343Z,20.70
2018-09-11T08:47:19.581Z,20.70
2018-09-11T08:48:23.831Z,20.80
2018-09-11T08:49:28.055Z,20.80
2018-09-11T08:50:32.386Z,20.90
2018-09-11T08:51:36.835Z,21.00
2018-09-11T08:52:41.155Z,21.00
2018-09-11T08:53:45.332Z,21.00
2018-09-11T08:54:49.450Z,21.10
2018-09-11T08:55:53.764Z,21.10
2018-09-11T08:56:57.902Z,21.10
2018-09-11T08:58:01.990Z,21.10
2018-09-11T08:59:06.290Z,21.10
2018-09-11T09:00:11.172Z,21.20
2018-09-11T09:01:15.291Z,21.30
2018-09-11T09:02:19.579Z,21.30
2018-09-11T09:03:24.344Z,21.40
2018-09-11T09:04:28.661Z,21.50
2018-09-11T09:05:32.939Z,21.50
2018-09-11T09:06:37.281Z,21.50
2018-09-11T09:07:41.498Z,21.60
2018-09-11T09:08:45.950Z,21.60
2018-09-11T09:09:50.303Z,21.60
2018-09-11T09:10:54.551Z,21.60
2018-09-11T09:11:58.865Z,21.60
2018-09-11T09:13:03.215Z,21.60
2018-09-11T09:14:07.584Z,21.60
2018-09-11T09:15:12.191Z,21.60
2018-09-11T09:16:16.709Z,21.50
2018-09-11T09:17:21.257Z,21.50
2018-09-11T09:18:25.356Z,21.50
2018-09-11T09:19:29.629Z,21.40
2018-09-11T09:20:33.946Z,21.40
2018-09-11T09:21:38.045Z,21.40
2018-09-11T09:22:42.116Z,21.50
2018-09-11T09:23:46.426Z,21.60
2018-09-11T09:24:50.754Z,21.60
2018-09-11T09:25:55.072Z,21.70
2018-09-11T09:26:59.553Z,21.70
2018-09-11T09:28:03.947Z,21.70
2018-09-11T09:29:08.144Z,21.80
2018-09-11T09:30:12.334Z,21.80
2018-09-11T09:31:16.645Z,21.80
2018-09-11T09:32:20.885Z,21.80
2018-09-11T09:33:25.099Z,21.80
2018-09-11T09:34:29.455Z,21.80
2018-09-11T09:35:33.729Z,21.90
2018-09-11T09:36:37.892Z,21.90
2018-09-11T09:37:42.250Z,21.90
2018-09-11T09:38:47.019Z,21.90
2018-09-11T09:39:51.410Z,22.00
2018-09-11T09:40:55.713Z,21.90
2018-09-11T09:42:00.294Z,22.00
2018-09-11T09:43:04.653Z,22.00
2018-09-11T09:44:09.260Z,22.00
2018-09-11T09:45:13.313Z,22.00
2018-09-11T09:46:17.443Z,21.90
2018-09-11T09:47:21.615Z,22.00
2018-09-11T09:48:26.162Z,22.00
2018-09-11T09:49:30.556Z,22.10
2018-09-11T09:50:35.081Z,22.10
2018-09-11T09:51:39.650Z,22.10
2018-09-11T09:52:43.944Z,22.10
2018-09-11T09:53:48.468Z,22.20
2018-09-11T09:54:52.572Z,22.10
2018-09-11T09:55:56.941Z,22.10
2018-09-11T09:57:01.328Z,22.10
2018-09-11T09:58:05.731Z,22.20
2018-09-11T09:59:09.901Z,22.20
2018-09-11T10:00:18.366Z,22.30
2018-09-11T10:01:27.910Z,22.30
2018-09-11T10:02:32.246Z,22.30
2018-09-11T10:03:36.607Z,22.30
2018-09-11T10:04:40.990Z,22.20
2018-09-11T10:05:45.273Z,22.30
2018-09-11T10:06:49.460Z,22.30
2018-09-11T10:07:53.762Z,22.40
2018-09-11T10:08:58.094Z,22.40
2018-09-11T10:10:02.649Z,22.50
2018-09-11T10:11:07.092Z,22.50
2018-09-11T10:12:11.399Z,22.50
2018-09-11T10:13:15.674Z,22.60
2018-09-11T10:14:19.790Z,22.60
2018-09-11T10:15:24.097Z,22.60
2018-09-11T10:16:28.291Z,22.70
2018-09-11T10:17:32.593Z,22.70
2018-09-11T10:18:36.758Z,22.80
2018-09-11T10:19:41.073Z,22.80
2018-09-11T10:20:45.899Z,22.80
2018-09-11T10:21:50.353Z,22.70
2018-09-11T10:22:54.507Z,22.80
2018-09-11T10:23:58.784Z,22.80
2018-09-11T10:25:03.353Z,22.90
2018-09-11T10:26:07.511Z,23.00
2018-09-11T10:27:12.203Z,22.90
2018-09-11T10:28:16.457Z,23.00
2018-09-11T10:29:20.766Z,23.00
2018-09-11T10:30:25.080Z,23.00
2018-09-11T10:31:29.414Z,23.00
2018-09-11T10:32:33.936Z,23.00
2018-09-11T10:33:38.303Z,23.10
2018-09-11T10:34:42.909Z,23.20
2018-09-11T10:35:47.180Z,23.20
2018-09-11T10:36:51.435Z,23.10
2018-09-11T10:37:56.058Z,23.20
2018-09-11T10:39:00.261Z,23.30
2018-09-11T10:40:04.895Z,23.20
2018-09-11T10:41:09.480Z,23.20
2018-09-11T10:42:13.746Z,23.30
2018-09-11T10:43:18.253Z,23.30
2018-09-11T10:44:22.354Z,23.30
2018-09-11T10:45:26.559Z,23.40
2018-09-11T10:46:31.063Z,23.40
2018-09-11T10:47:35.585Z,23.40
2018-09-11T10:48:40.032Z,23.40
2018-09-11T10:49:44.330Z,23.40
2018-09-11T10:50:48.905Z,23.40
2018-09-11T10:51:53.085Z,23.40
2018-09-11T10:52:57.227Z,23.40
2018-09-11T10:54:01.690Z,23.40
2018-09-11T10:55:06.330Z,23.40
2018-09-11T10:56:17.617Z,23.40
2018-09-11T10:57:21.976Z,23.50
2018-09-11T10:58:26.161Z,23.60
2018-09-11T10:59:30.266Z,23.60
2018-09-11T11:00:35.056Z,23.80
2018-09-11T11:01:39.308Z,23.80
2018-09-11T11:02:43.443Z,23.80
2018-09-11T11:03:47.502Z,23.80
2018-09-11T11:04:51.815Z,23.90
2018-09-11T11:05:56.183Z,23.80
2018-09-11T11:07:00.545Z,23.70
2018-09-11T11:08:05.121Z,23.80
2018-09-11T11:09:10.486Z,23.80
2018-09-11T11:10:14.690Z,23.80
2018-09-11T11:11:19.217Z,23.90
2018-09-11T11:12:23.469Z,23.90
2018-09-11T11:13:27.669Z,24.00
2018-09-11T11:14:31.932Z,24.10
2018-09-11T11:15:36.120Z,24.20
2018-09-11T11:16:40.396Z,24.20
2018-09-11T11:17:44.659Z,24.20
2018-09-11T11:18:49.105Z,24.30
2018-09-11T11:19:53.215Z,24.20
2018-09-11T11:20:57.405Z,24.20
2018-09-11T11:22:01.854Z,24.10
2018-09-11T11:23:06.541Z,24.20
2018-09-11T11:24:10.645Z,24.20
2018-09-11T11:25:14.923Z,24.20
2018-09-11T11:26:19.291Z,24.10
2018-09-11T11:27:23.808Z,24.10
2018-09-11T11:28:28.310Z,24.10
2018-09-11T11:29:32.991Z,24.10
2018-09-11T11:30:37.376Z,24.20
2018-09-11T11:31:42.063Z,24.20
2018-09-11T11:32:46.194Z,24.20
2018-09-11T11:33:50.716Z,24.20
2018-09-11T11:34:54.837Z,24.20
2018-09-11T11:35:59.111Z,24.20
2018-09-11T11:37:03.359Z,24.20
2018-09-11T11:38:07.593Z,24.20
2018-09-11T11:39:12.255Z,24.10
2018-09-11T11:40:16.638Z,24.20
2018-09-11T11:41:21.161Z,24.30
2018-09-11T11:42:25.795Z,24.30
2018-09-11T11:43:29.794Z,24.40
2018-09-11T11:44:34.102Z,24.50
2018-09-11T11:45:38.815Z,24.50
2018-09-11T11:46:43.050Z,24.60
2018-09-11T11:47:47.699Z,24.70
2018-09-11T11:48:52.446Z,24.80
2018-09-11T11:49:56.833Z,24.70
2018-09-11T11:51:01.026Z,24.60
2018-09-11T11:52:05.272Z,24.60
2018-09-11T11:53:09.565Z,24.60
2018-09-11T11:54:13.855Z,24.70
2018-09-11T11:55:18.582Z,24.70
2018-09-11T11:56:22.937Z,24.70
2018-09-11T11:57:27.544Z,24.60
2018-09-11T11:58:31.849Z,24.60
2018-09-11T11:59:36.550Z,24.50
2018-09-11T12:00:41.274Z,24.50
2018-09-11T12:01:45.602Z,24.60
2018-09-11T12:02:50.041Z,24.80
2018-09-11T12:03:54.513Z,24.80
2018-09-11T12:04:58.740Z,24.90
2018-09-11T12:06:03.396Z,24.80
2018-09-11T12:07:07.643Z,24.80
2018-09-11T12:08:11.747Z,24.80
2018-09-11T12:09:16.036Z,24.90
2018-09-11T12:10:20.343Z,25.00
2018-09-11T12:11:24.723Z,24.90
2018-09-11T12:12:29.173Z,25.00
2018-09-11T12:13:33.280Z,25.10
2018-09-11T12:14:37.491Z,25.00
2018-09-11T12:15:41.593Z,25.00
2018-09-11T12:16:46.102Z,25.00
2018-09-11T12:17:50.443Z,24.90
2018-09-11T12:18:54.776Z,25.00
2018-09-11T12:19:59.202Z,25.00
2018-09-11T12:21:03.361Z,25.10
2018-09-11T12:22:07.857Z,25.10
2018-09-11T12:23:11.950Z,25.10
2018-09-11T12:24:16.358Z,25.20
2018-09-11T12:25:20.650Z,25.20
2018-09-11T12:26:25.043Z,25.20
2018-09-11T12:27:29.385Z,25.30
2018-09-11T12:28:33.689Z,25.40
2018-09-11T12:29:37.942Z,25.50
2018-09-11T12:30:42.044Z,25.50
2018-09-11T12:31:46.658Z,25.50
2018-09-11T12:32:50.876Z,25.60
2018-09-11T12:33:55.365Z,25.70
2018-09-11T12:34:59.551Z,25.70
2018-09-11T12:36:04.010Z,25.70
2018-09-11T12:37:08.378Z,25.70
2018-09-11T12:38:12.871Z,25.70
2018-09-11T12:39:17.406Z,25.60
2018-09-11T12:40:21.669Z,25.60
2018-09-11T12:41:25.976Z,25.70
2018-09-11T12:42:30.098Z,25.70
2018-09-11T12:43:34.490Z,25.80
2018-09-11T12:44:38.624Z,25.90
2018-09-11T12:45:43.130Z,25.90
2018-09-11T12:46:47.587Z,26.00
2018-09-11T12:47:52.317Z,26.00
2018-09-11T12:48:56.176Z,25.90
2018-09-11T12:50:00.488Z,26.00
2018-09-11T12:51:04.697Z,26.10
2018-09-11T12:52:09.065Z,26.10
2018-09-11T12:53:13.321Z,26.20
2018-09-11T12:54:17.658Z,26.20
2018-09-11T12:55:21.828Z,26.20
2018-09-11T12:56:25.965Z,26.30
2018-09-11T12:57:30.721Z,26.30
2018-09-11T12:58:34.949Z,26.40
2018-09-11T12:59:39.163Z,26.40
2018-09-11T13:00:43.629Z,26.40
2018-09-11T13:01:47.894Z,26.50
2018-09-11T13:02:52.065Z,26.60
2018-09-11T13:03:56.135Z,26.60
2018-09-11T13:05:00.415Z,26.70
2018-09-11T13:06:04.633Z,26.80
2018-09-11T13:07:08.898Z,26.80
2018-09-11T13:08:13.382Z,26.80
2018-09-11T13:09:17.789Z,26.80
2018-09-11T13:10:22.155Z,26.80
2018-09-11T13:11:26.680Z,26.90
2018-09-11T13:12:31.060Z,26.90
2018-09-11T13:13:35.405Z,26.90
2018-09-11T13:14:39.673Z,27.10
2018-09-11T13:15:44.082Z,27.10
2018-09-11T13:16:48.698Z,27.20
2018-09-11T13:17:53.272Z,27.30
2018-09-11T13:18:57.682Z,27.40
2018-09-11T13:20:01.973Z,27.30
2018-09-11T13:21:06.275Z,27.50
2018-09-11T13:22:10.406Z,27.60
2018-09-11T13:23:14.746Z,27.50
2018-09-11T13:24:19.046Z,27.50
2018-09-11T13:25:23.433Z,27.60
2018-09-11T13:26:28.056Z,27.60
2018-09-11T13:27:32.654Z,27.70
2018-09-11T13:28:36.884Z,27.80
2018-09-11T13:29:41.400Z,27.80
2018-09-11T13:30:45.613Z,27.90
2018-09-11T13:31:50.151Z,28.00
2018-09-11T13:32:54.426Z,28.10
2018-09-11T13:33:58.739Z,28.30
2018-09-11T13:35:02.949Z,28.50
2018-09-11T13:36:07.394Z,28.30
2018-09-11T13:37:11.649Z,28.30
2018-09-11T13:38:15.868Z,28.50
2018-09-11T13:39:20.264Z,28.80
2018-09-11T13:40:24.984Z,28.80
2018-09-11T13:41:29.376Z,28.90
2018-09-11T13:42:33.585Z,29.00
2018-09-11T13:43:37.741Z,29.20
2018-09-11T13:44:42.298Z,29.20
2018-09-11T13:45:46.764Z,29.30
2018-09-11T13:46:51.243Z,29.50
2018-09-11T13:47:55.432Z,29.80
2018-09-11T13:48:59.748Z,29.80
2018-09-11T13:50:04.284Z,29.80